Time;durP1;ratioP1;P1;durP2;ratioP2;P2;SDS_P1;SDS_P2;PMS_P1;PMS_P2;Temp;Humidity;BMP_temperature;BMP_pressure;BME280_temperature;BME280_humidity;BME280_pressure;Samples;Min_cycle;Max_cycle;Signal;HPM_P1;HPM_P2
2022/03/22 00:00:08;;;;;;;12.00;5.55;;;5.90;63.40;;;;;;5077003;28;20040;-64
2022/03/22 00:02:39;;;;;;;8.60;5.30;;;5.90;63.30;;;;;;5079577;28;20056;-63
2022/03/22 00:05:07;;;;;;;8.52;4.95;;;5.80;63.40;;;;;;5082781;28;20047;-64
2022/03/22 00:07:40;;;;;;;10.80;5.57;;;5.70;63.40;;;;;;5077955;28;20052;-63
2022/03/22 00:10:08;;;;;;;9.35;4.85;;;5.80;63.30;;;;;;5085114;28;20489;-64
2022/03/22 00:12:36;;;;;;;9.60;5.10;;;5.70;63.50;;;;;;5075301;28;20121;-63
2022/03/22 00:15:05;;;;;;;10.32;4.78;;;5.70;63.40;;;;;;5080189;28;20127;-65
2022/03/22 00:17:32;;;;;;;13.05;4.22;;;5.70;63.30;;;;;;5080124;28;20036;-64
2022/03/22 00:20:00;;;;;;;9.63;4.63;;;5.70;63.50;;;;;;5080286;28;20044;-64
2022/03/22 00:22:27;;;;;;;11.45;4.65;;;5.60;63.50;;;;;;5055105;28;20127;-63
2022/03/22 00:24:54;;;;;;;11.70;5.30;;;5.70;63.40;;;;;;5061848;28;20048;-62
2022/03/22 00:27:21;;;;;;;11.52;5.53;;;5.60;63.50;;;;;;5068707;28;20043;-63
2022/03/22 00:29:49;;;;;;;12.00;5.68;;;5.60;63.60;;;;;;5076218;28;20072;-63
2022/03/22 00:32:18;;;;;;;12.18;5.80;;;5.60;63.50;;;;;;5070357;28;20131;-64
2022/03/22 00:34:45;;;;;;;10.05;4.93;;;5.60;63.50;;;;;;5070866;28;20040;-63
2022/03/22 00:37:14;;;;;;;14.07;5.97;;;5.60;63.50;;;;;;5065203;28;20094;-64
2022/03/22 00:39:43;;;;;;;10.85;4.65;;;5.50;63.60;;;;;;5060029;28;20044;-63
2022/03/22 00:42:10;;;;;;;10.02;5.32;;;5.40;63.60;;;;;;5076687;28;20048;-64
2022/03/22 00:44:38;;;;;;;12.77;5.13;;;5.40;63.80;;;;;;5066919;28;20044;-64
2022/03/22 00:47:07;;;;;;;12.25;5.65;;;5.40;63.90;;;;;;5062714;28;20066;-64
2022/03/22 00:49:36;;;;;;;10.13;5.32;;;5.30;63.90;;;;;;5057703;28;20088;-63
2022/03/22 00:52:04;;;;;;;9.05;4.45;;;5.30;64.00;;;;;;5062839;28;20606;-64
2022/03/22 00:54:32;;;;;;;12.45;5.55;;;5.30;64.10;;;;;;5058604;28;20067;-64
2022/03/22 00:56:59;;;;;;;9.57;4.78;;;5.30;64.10;;;;;;5060520;28;20070;-63
2022/03/22 01:02:10;;;;;;;8.40;4.68;;;5.20;64.10;;;;;;5056989;28;20510;-64
2022/03/22 01:04:39;;;;;;;11.00;4.90;;;5.20;64.20;;;;;;5057054;28;20744;-64
2022/03/22 01:07:06;;;;;;;11.73;4.78;;;5.20;64.30;;;;;;5042212;28;20493;-64
2022/03/22 01:09:32;;;;;;;10.48;4.57;;;5.10;64.30;;;;;;5063248;28;20046;-63
2022/03/22 01:11:59;;;;;;;11.43;4.57;;;5.10;64.40;;;;;;5060442;28;20491;-64
2022/03/22 01:14:27;;;;;;;9.43;5.65;;;5.00;64.40;;;;;;5059092;28;20041;-64
2022/03/22 01:16:56;;;;;;;11.68;4.82;;;5.00;64.40;;;;;;5061474;28;20131;-64
2022/03/22 01:19:23;;;;;;;12.02;5.13;;;5.00;64.40;;;;;;5056725;28;20066;-64
2022/03/22 01:21:51;;;;;;;8.73;4.93;;;5.00;64.60;;;;;;5058504;28;20130;-63
2022/03/22 01:24:20;;;;;;;8.52;4.15;;;4.90;64.50;;;;;;5061473;28;20058;-65
2022/03/22 01:26:47;;;;;;;7.57;3.92;;;4.90;64.70;;;;;;5065673;28;20041;-65
2022/03/22 01:29:14;;;;;;;10.02;5.45;;;4.90;64.80;;;;;;5057419;28;21991;-66
2022/03/22 01:31:41;;;;;;;10.80;5.03;;;4.90;64.70;;;;;;5062250;28;20066;-62
2022/03/22 01:34:08;;;;;;;9.38;5.10;;;4.80;64.70;;;;;;5059427;28;20049;-62
2022/03/22 01:36:35;;;;;;;10.23;4.80;;;4.80;64.70;;;;;;5059999;28;20127;-65
2022/03/22 01:39:03;;;;;;;9.93;4.68;;;4.70;64.80;;;;;;5062133;28;20053;-65
2022/03/22 01:41:30;;;;;;;9.60;4.60;;;4.70;64.80;;;;;;5059665;28;20040;-64
2022/03/22 01:43:58;;;;;;;10.75;4.70;;;4.70;64.80;;;;;;5063199;28;20051;-64
2022/03/22 01:46:27;;;;;;;9.95;4.68;;;4.70;65.00;;;;;;5063874;28;20128;-65
2022/03/22 01:48:55;;;;;;;11.20;4.60;;;4.70;65.00;;;;;;5057595;28;20033;-63
2022/03/22 01:51:22;;;;;;;9.98;4.15;;;4.60;65.20;;;;;;5071321;28;20044;-65
2022/03/22 01:53:50;;;;;;;10.43;4.70;;;4.60;65.10;;;;;;5068717;28;20040;-63
2022/03/22 01:56:19;;;;;;;9.20;4.80;;;4.60;65.20;;;;;;5064186;28;20093;-63
2022/03/22 01:58:47;;;;;;;9.25;4.47;;;4.50;65.20;;;;;;5069510;28;20041;-65
2022/03/22 02:06:47;;;;;;;8.40;4.40;;;4.50;65.20;;;;;;5068238;28;20398;-66
2022/03/22 02:09:14;;;;;;;10.02;4.90;;;4.50;65.30;;;;;;5072221;28;20047;-63
2022/03/22 02:11:42;;;;;;;8.43;4.47;;;4.40;65.30;;;;;;5069110;28;20737;-65
2022/03/22 02:14:09;;;;;;;10.98;4.30;;;4.40;65.30;;;;;;5072024;28;20043;-63
2022/03/22 02:16:36;;;;;;;9.25;4.63;;;4.40;65.40;;;;;;5074031;28;20097;-64
2022/03/22 02:19:08;;;;;;;7.70;4.03;;;4.40;65.50;;;;;;5070667;28;20400;-63
2022/03/22 02:21:38;;;;;;;9.38;4.20;;;4.40;65.50;;;;;;5064413;28;20040;-63
2022/03/22 02:24:07;;;;;;;9.63;4.03;;;4.30;65.70;;;;;;5073559;28;20048;-65
2022/03/22 02:26:34;;;;;;;8.43;4.05;;;4.30;65.70;;;;;;5075651;28;20072;-64
2022/03/22 02:29:01;;;;;;;7.50;4.20;;;4.30;65.70;;;;;;5063606;28;20040;-63
2022/03/22 02:31:30;;;;;;;7.47;3.90;;;4.20;65.70;;;;;;5069248;28;20041;-64
2022/03/22 02:33:57;;;;;;;10.95;4.10;;;4.20;65.70;;;;;;5074988;28;20043;-63
2022/03/22 02:36:24;;;;;;;9.15;4.47;;;4.20;65.90;;;;;;5076187;28;20131;-62
2022/03/22 02:38:52;;;;;;;9.75;4.20;;;4.20;66.00;;;;;;5066569;28;20123;-64
2022/03/22 02:41:22;;;;;;;9.68;4.47;;;4.10;66.10;;;;;;5067500;28;20143;-63
2022/03/22 02:43:50;;;;;;;8.93;4.07;;;4.10;66.00;;;;;;5070510;28;20069;-62
2022/03/22 02:46:18;;;;;;;8.65;4.35;;;4.20;65.90;;;;;;5071041;28;20048;-66
2022/03/22 02:48:45;;;;;;;11.00;5.30;;;4.20;65.80;;;;;;5066934;28;20036;-64
2022/03/22 02:51:13;;;;;;;9.55;4.88;;;4.20;65.80;;;;;;5074980;28;20159;-64
2022/03/22 02:53:40;;;;;;;12.73;4.55;;;4.20;65.90;;;;;;5072022;28;20041;-66
2022/03/22 02:56:07;;;;;;;10.40;4.15;;;4.20;66.00;;;;;;5068567;28;20121;-62
2022/03/22 02:58:36;;;;;;;9.45;5.00;;;4.10;66.00;;;;;;5068989;28;20044;-63
2022/03/22 03:01:04;;;;;;;8.38;4.82;;;4.10;66.10;;;;;;5064402;28;20047;-63
2022/03/22 03:03:32;;;;;;;8.88;4.78;;;4.00;66.10;;;;;;5077515;28;20482;-63
2022/03/22 03:06:01;;;;;;;10.53;3.90;;;4.00;66.10;;;;;;5058911;28;20040;-64
2022/03/22 03:08:31;;;;;;;8.63;3.78;;;3.90;66.10;;;;;;5068221;28;20045;-65
2022/03/22 03:10:58;;;;;;;9.25;3.95;;;3.90;66.10;;;;;;5049670;28;20041;-62
2022/03/22 03:13:25;;;;;;;8.50;4.22;;;3.90;66.10;;;;;;5058703;28;20051;-63
2022/03/22 03:15:53;;;;;;;10.82;4.65;;;3.80;66.20;;;;;;5065860;28;20044;-64
2022/03/22 03:18:20;;;;;;;10.75;5.13;;;3.90;66.30;;;;;;5066906;28;20060;-63
2022/03/22 03:20:47;;;;;;;10.75;3.92;;;3.90;66.30;;;;;;5063537;28;20058;-64
2022/03/22 03:23:14;;;;;;;9.07;4.15;;;3.80;66.40;;;;;;5061884;28;20122;-63
2022/03/22 03:25:41;;;;;;;8.55;4.32;;;3.80;66.40;;;;;;5064981;28;20066;-63
2022/03/22 03:28:09;;;;;;;9.52;4.70;;;3.90;66.40;;;;;;5066061;28;20080;-62
2022/03/22 03:30:36;;;;;;;10.05;5.00;;;3.80;66.50;;;;;;5062742;28;20044;-63
2022/03/22 03:33:05;;;;;;;7.97;4.68;;;3.80;66.60;;;;;;5064314;28;20072;-63
2022/03/22 03:35:32;;;;;;;10.60;5.05;;;3.70;66.90;;;;;;5040672;28;20047;-63
2022/03/22 03:37:59;;;;;;;9.52;4.60;;;3.70;67.10;;;;;;5059899;28;20123;-65
2022/03/22 03:41:53;;;;;;;10.00;4.47;;;3.70;67.00;;;;;;5064727;28;20051;-63
2022/03/22 03:43:12;;;;;;;10.32;4.85;;;3.70;67.10;;;;;;5049323;28;20487;-63
2022/03/22 03:48:30;;;;;;;10.30;5.65;;;3.70;67.20;;;;;;4997081;28;20072;-65
2022/03/22 03:50:57;;;;;;;9.02;5.03;;;3.70;67.20;;;;;;5054375;28;20126;-65
2022/03/22 03:53:24;;;;;;;9.70;5.47;;;3.70;67.00;;;;;;5061618;28;20045;-65
2022/03/22 03:55:51;;;;;;;12.48;4.93;;;3.70;66.90;;;;;;5067708;28;20045;-63
2022/03/22 03:58:18;;;;;;;10.27;4.55;;;3.70;67.00;;;;;;5060245;28;20123;-63
2022/03/22 04:00:45;;;;;;;11.02;4.85;;;3.70;67.00;;;;;;5018873;28;20171;-64
2022/03/22 04:03:13;;;;;;;10.50;5.47;;;3.70;66.90;;;;;;5058615;28;20041;-64
2022/03/22 04:05:41;;;;;;;11.88;4.57;;;3.70;66.90;;;;;;5072499;28;20071;-64
2022/03/22 04:08:08;;;;;;;7.45;4.20;;;3.60;67.10;;;;;;5063212;28;20036;-65
2022/03/22 04:10:35;;;;;;;7.82;4.72;;;3.50;67.20;;;;;;5074615;28;20045;-64
2022/03/22 04:13:03;;;;;;;8.88;4.47;;;3.60;67.20;;;;;;5072254;28;20383;-64
2022/03/22 04:15:30;;;;;;;11.75;4.97;;;3.60;67.00;;;;;;5070830;28;20048;-65
2022/03/22 04:17:59;;;;;;;10.75;4.43;;;3.50;67.20;;;;;;5067425;28;20128;-65
2022/03/22 04:20:26;;;;;;;7.60;3.85;;;3.40;67.30;;;;;;5065734;28;20120;-65
2022/03/22 04:22:55;;;;;;;12.02;5.22;;;3.50;67.00;;;;;;5058713;28;20068;-65
2022/03/22 04:25:22;;;;;;;8.98;4.65;;;3.50;66.80;;;;;;5055137;28;20113;-62
2022/03/22 04:33:18;;;;;;;13.30;5.00;;;3.40;66.90;;;;;;5069292;28;20079;-64
2022/03/22 04:35:45;;;;;;;10.23;4.57;;;3.40;66.90;;;;;;5062107;28;20041;-63
2022/03/22 04:38:14;;;;;;;12.27;4.93;;;3.40;66.80;;;;;;5064942;28;20127;-65
2022/03/22 04:40:41;;;;;;;12.23;5.15;;;3.30;67.10;;;;;;5065524;28;20382;-63
2022/03/22 04:43:08;;;;;;;10.38;5.43;;;3.30;67.10;;;;;;5061725;28;20169;-63
2022/03/22 04:45:35;;;;;;;12.07;4.90;;;3.30;67.10;;;;;;5059409;28;20049;-62
2022/03/22 04:48:03;;;;;;;8.95;4.70;;;3.30;67.10;;;;;;5064051;28;20056;-62
2022/03/22 04:50:30;;;;;;;9.68;4.97;;;3.20;67.20;;;;;;5058944;28;20062;-64
2022/03/22 04:58:28;;;;;;;10.10;5.40;;;3.20;67.30;;;;;;5061906;28;20048;-62
2022/03/22 05:00:55;;;;;;;10.35;5.00;;;3.20;67.40;;;;;;5068440;28;20052;-63
2022/03/22 05:03:22;;;;;;;8.60;4.55;;;3.20;67.40;;;;;;5072262;28;20120;-63
2022/03/22 05:08:33;;;;;;;9.88;5.05;;;3.10;67.60;;;;;;5066136;28;20119;-63
2022/03/22 05:11:02;;;;;;;10.25;4.22;;;3.10;67.60;;;;;;5070117;28;20441;-63
2022/03/22 05:13:29;;;;;;;8.50;4.55;;;3.10;67.50;;;;;;5060779;28;20040;-65
2022/03/22 05:15:56;;;;;;;10.43;4.63;;;3.10;67.50;;;;;;5059395;28;20040;-63
2022/03/22 05:18:23;;;;;;;9.82;5.47;;;3.10;67.50;;;;;;5049159;28;20597;-63
2022/03/22 05:20:50;;;;;;;11.38;5.60;;;3.00;67.60;;;;;;5061550;28;20040;-62
2022/03/22 05:23:17;;;;;;;11.43;4.60;;;3.00;67.60;;;;;;5060423;28;20063;-64
2022/03/22 05:25:45;;;;;;;9.55;4.78;;;3.00;67.70;;;;;;5047279;28;20048;-61
2022/03/22 05:28:13;;;;;;;7.85;4.32;;;3.10;67.60;;;;;;5059297;28;20094;-62
2022/03/22 05:30:40;;;;;;;10.10;4.38;;;3.10;67.40;;;;;;5066324;28;20052;-63
2022/03/22 05:33:07;;;;;;;11.40;5.82;;;3.10;67.50;;;;;;5061031;28;20441;-65
2022/03/22 05:35:34;;;;;;;10.20;5.28;;;3.10;67.60;;;;;;5063540;28;20048;-64
2022/03/22 05:38:01;;;;;;;8.65;4.50;;;3.00;67.80;;;;;;5068069;28;20044;-63
2022/03/22 05:40:30;;;;;;;11.45;5.40;;;3.00;67.90;;;;;;5065079;28;20045;-63
2022/03/22 05:42:57;;;;;;;12.05;5.25;;;3.10;67.90;;;;;;5058484;28;20484;-63
2022/03/22 05:45:26;;;;;;;12.20;4.78;;;3.10;67.80;;;;;;5070820;28;20124;-65
2022/03/22 05:47:54;;;;;;;10.25;4.57;;;3.10;68.00;;;;;;5068796;28;20045;-64
2022/03/22 05:50:21;;;;;;;8.20;4.95;;;3.10;67.90;;;;;;5064008;28;20653;-65
2022/03/22 05:52:49;;;;;;;14.80;5.03;;;3.10;67.80;;;;;;5063415;28;20051;-65
2022/03/22 05:55:16;;;;;;;9.13;4.20;;;3.20;67.70;;;;;;5067560;28;20049;-66
2022/03/22 05:57:43;;;;;;;12.00;5.18;;;3.20;67.50;;;;;;5069246;28;20098;-64
2022/03/22 06:00:12;;;;;;;7.88;4.47;;;3.30;67.50;;;;;;5070943;28;20061;-64
2022/03/22 06:02:41;;;;;;;10.52;5.15;;;3.30;67.40;;;;;;5072645;28;20067;-66
2022/03/22 06:05:11;;;;;;;9.32;4.50;;;3.30;67.40;;;;;;5063897;28;20059;-64
2022/03/22 06:07:39;;;;;;;9.57;5.18;;;3.20;67.40;;;;;;5069034;28;20672;-65
2022/03/22 06:10:07;;;;;;;12.93;6.25;;;3.20;67.60;;;;;;5058619;28;20037;-64
2022/03/22 06:12:38;;;;;;;12.50;5.70;;;3.20;67.70;;;;;;5066352;28;20048;-65
2022/03/22 06:15:18;;;;;;;12.38;5.60;;;3.20;67.80;;;;;;5062733;28;20052;-64
2022/03/22 06:17:47;;;;;;;9.40;4.55;;;3.20;67.80;;;;;;5064457;28;20387;-65
2022/03/22 06:20:14;;;;;;;12.82;4.68;;;3.20;67.90;;;;;;5068470;28;20073;-64
2022/03/22 06:22:42;;;;;;;11.77;4.55;;;3.30;67.90;;;;;;5067147;28;20088;-64
2022/03/22 06:25:10;;;;;;;10.90;5.20;;;3.30;67.90;;;;;;5063210;28;20113;-64
2022/03/22 06:27:38;;;;;;;12.82;5.18;;;3.40;67.90;;;;;;5062322;28;20040;-64
2022/03/22 06:30:06;;;;;;;11.40;5.75;;;3.50;67.80;;;;;;5061331;28;20275;-63
2022/03/22 06:32:40;;;;;;;9.25;5.57;;;3.50;67.80;;;;;;5063916;28;20592;-63
2022/03/22 06:35:10;;;;;;;11.88;5.30;;;3.60;67.80;;;;;;5045446;28;20466;-63
2022/03/22 06:37:37;;;;;;;13.40;5.57;;;3.70;67.70;;;;;;5078490;28;20060;-63
2022/03/22 06:40:06;;;;;;;11.10;5.60;;;3.70;67.50;;;;;;5071344;28;20505;-64
2022/03/22 06:42:33;;;;;;;10.57;5.90;;;3.80;67.30;;;;;;5079898;28;20047;-63
2022/03/22 06:45:00;;;;;;;10.77;4.93;;;3.90;67.10;;;;;;5073375;28;20094;-65
2022/03/22 06:47:27;;;;;;;11.90;5.22;;;4.00;66.90;;;;;;5070135;28;20048;-65
2022/03/22 06:49:54;;;;;;;11.00;5.53;;;4.10;66.70;;;;;;5071473;28;20072;-64
2022/03/22 06:52:22;;;;;;;11.88;5.30;;;4.20;66.40;;;;;;5072362;28;20075;-64
2022/03/22 06:54:49;;;;;;;9.20;4.47;;;4.30;66.10;;;;;;5075072;28;20151;-64
2022/03/22 06:57:17;;;;;;;12.10;4.95;;;4.50;65.70;;;;;;5076933;28;20048;-64
2022/03/22 06:59:44;;;;;;;11.10;5.05;;;4.50;65.60;;;;;;5078493;28;20046;-64
2022/03/22 07:02:10;;;;;;;11.20;5.80;;;4.50;65.60;;;;;;5076806;28;20114;-64
2022/03/22 07:04:38;;;;;;;9.73;4.43;;;4.60;65.50;;;;;;5076955;28;20047;-63
2022/03/22 07:07:06;;;;;;;15.32;5.00;;;4.60;65.50;;;;;;5078211;28;20050;-64
2022/03/22 07:09:35;;;;;;;9.57;5.38;;;4.70;65.60;;;;;;5075788;28;20060;-63
2022/03/22 07:12:02;;;;;;;12.25;5.40;;;4.70;65.50;;;;;;5065725;28;20055;-65
2022/03/22 07:14:29;;;;;;;12.18;5.80;;;4.70;65.40;;;;;;5069901;28;20399;-64
2022/03/22 07:16:57;;;;;;;12.18;5.90;;;4.70;65.20;;;;;;5074959;28;20052;-63
2022/03/22 07:19:24;;;;;;;9.02;5.15;;;4.70;65.20;;;;;;5073565;28;20398;-63
2022/03/22 07:21:52;;;;;;;11.88;5.72;;;4.80;65.20;;;;;;5074237;28;20036;-64
2022/03/22 07:24:19;;;;;;;10.90;5.78;;;4.80;65.00;;;;;;5074921;28;20044;-65
2022/03/22 07:26:48;;;;;;;12.45;6.03;;;4.80;65.00;;;;;;5071375;28;20052;-64
2022/03/22 07:29:15;;;;;;;12.48;5.30;;;4.80;64.80;;;;;;5069863;28;20562;-64
2022/03/22 07:31:42;;;;;;;13.18;6.57;;;4.80;64.70;;;;;;5051091;28;20059;-63
2022/03/22 07:34:12;;;;;;;11.57;6.70;;;4.80;64.90;;;;;;5070961;28;20040;-65
2022/03/22 07:36:40;;;;;;;9.45;5.80;;;4.90;65.10;;;;;;5070725;28;20044;-63
2022/03/22 07:39:08;;;;;;;13.50;5.43;;;4.90;65.20;;;;;;5072510;28;20508;-64
2022/03/22 07:41:36;;;;;;;13.90;5.50;;;5.00;65.30;;;;;;5069751;28;20047;-66
2022/03/22 07:44:05;;;;;;;12.95;6.15;;;5.00;65.30;;;;;;5074970;28;20504;-64
2022/03/22 07:46:33;;;;;;;12.07;6.00;;;5.10;65.50;;;;;;5072700;28;20080;-63
2022/03/22 07:54:28;;;;;;;14.90;6.55;;;5.40;65.70;;;;;;5072499;28;20040;-64
2022/03/22 07:56:55;;;;;;;15.63;6.55;;;5.60;65.30;;;;;;5072633;28;20052;-68
2022/03/22 07:59:24;;;;;;;14.32;6.38;;;5.70;64.90;;;;;;5070715;28;20119;-66
2022/03/22 08:01:52;;;;;;;14.63;6.00;;;5.80;64.80;;;;;;5070952;28;20072;-65
2022/03/22 08:04:19;;;;;;;11.52;6.10;;;5.90;64.60;;;;;;5072840;28;20045;-64
2022/03/22 08:06:46;;;;;;;11.20;6.00;;;6.10;64.50;;;;;;5072700;28;20117;-65
2022/03/22 08:09:13;;;;;;;13.43;6.57;;;6.20;64.50;;;;;;5071614;28;20076;-64
2022/03/22 08:11:40;;;;;;;13.65;6.43;;;6.40;64.20;;;;;;5075333;28;20057;-63
2022/03/22 08:14:07;;;;;;;12.25;6.05;;;6.50;63.70;;;;;;5075261;28;20044;-64
2022/03/22 08:16:36;;;;;;;12.93;6.65;;;6.60;63.40;;;;;;5073589;28;20071;-63
2022/03/22 08:19:04;;;;;;;13.07;7.10;;;6.70;63.10;;;;;;5079598;28;20044;-63
2022/03/22 08:21:31;;;;;;;15.00;6.95;;;6.90;62.60;;;;;;5077257;28;20458;-65
2022/03/22 08:23:58;;;;;;;15.32;6.50;;;7.00;62.50;;;;;;5069758;28;20076;-63
2022/03/22 08:26:25;;;;;;;12.38;6.20;;;7.10;62.20;;;;;;5064531;28;20044;-64
2022/03/22 08:28:52;;;;;;;11.20;5.90;;;7.20;61.90;;;;;;5075046;28;20119;-63
2022/03/22 08:31:20;;;;;;;11.20;6.43;;;7.30;61.30;;;;;;5076395;28;20059;-65
2022/03/22 08:33:48;;;;;;;12.13;6.30;;;7.50;61.20;;;;;;5077382;28;20120;-64
2022/03/22 08:36:15;;;;;;;11.55;6.53;;;7.60;61.60;;;;;;5070945;28;20072;-65
2022/03/22 08:38:42;;;;;;;11.13;6.30;;;7.70;61.20;;;;;;5074613;28;20115;-63
2022/03/22 08:41:10;;;;;;;11.95;6.32;;;7.80;60.80;;;;;;5071487;28;20044;-63
2022/03/22 08:43:37;;;;;;;13.48;6.15;;;8.00;61.10;;;;;;5071650;28;20070;-64
2022/03/22 08:46:05;;;;;;;11.02;5.45;;;8.10;60.30;;;;;;5070963;28;20110;-64
2022/03/22 08:48:32;;;;;;;10.45;5.50;;;8.30;60.80;;;;;;5073265;28;20072;-65
2022/03/22 08:51:00;;;;;;;11.55;6.15;;;8.40;59.50;;;;;;5053591;28;20147;-64
2022/03/22 08:53:27;;;;;;;11.70;6.03;;;8.50;59.50;;;;;;5071746;28;20043;-66
2022/03/22 08:55:54;;;;;;;12.68;7.05;;;8.60;59.00;;;;;;5074377;28;20132;-64
2022/03/22 08:58:21;;;;;;;12.20;6.38;;;8.70;58.60;;;;;;5066175;28;20073;-65
2022/03/22 09:00:49;;;;;;;10.38;5.43;;;8.80;58.60;;;;;;5068678;28;20530;-68
2022/03/22 09:03:16;;;;;;;11.52;5.13;;;8.90;58.60;;;;;;5071107;28;20546;-68
2022/03/22 09:08:30;;;;;;;9.15;4.10;;;9.10;57.00;;;;;;5069984;28;20893;-68
2022/03/22 09:10:56;;;;;;;8.63;3.83;;;9.20;57.00;;;;;;5072595;28;20055;-69
2022/03/22 09:13:23;;;;;;;11.35;4.25;;;9.30;55.00;;;;;;5067853;28;20553;-68
2022/03/22 09:15:51;;;;;;;9.05;4.63;;;9.30;55.80;;;;;;5069194;28;20048;-69
2022/03/22 09:18:21;;;;;;;6.85;3.42;;;9.40;56.00;;;;;;5070643;28;20052;-68
2022/03/22 09:20:48;;;;;;;8.60;4.40;;;9.50;55.80;;;;;;5074260;28;20055;-68
2022/03/22 09:23:16;;;;;;;8.73;4.43;;;9.60;55.40;;;;;;5071789;28;20053;-68
2022/03/22 09:25:46;;;;;;;8.98;3.90;;;9.70;55.40;;;;;;5073776;28;20059;-67
2022/03/22 09:28:13;;;;;;;8.45;3.65;;;9.80;54.40;;;;;;5069969;28;20036;-67
2022/03/22 09:30:41;;;;;;;9.10;4.60;;;9.90;54.80;;;;;;5069123;28;20085;-69
2022/03/22 09:33:11;;;;;;;7.88;3.55;;;10.00;53.70;;;;;;5072330;28;20068;-68
2022/03/22 09:35:38;;;;;;;8.15;4.40;;;10.10;54.60;;;;;;5072017;28;20627;-66
2022/03/22 09:38:05;;;;;;;7.63;3.45;;;10.10;53.90;;;;;;5069182;28;20040;-68
2022/03/22 09:40:33;;;;;;;8.50;4.20;;;10.20;53.50;;;;;;5068879;28;20048;-68
2022/03/22 09:43:01;;;;;;;7.35;3.53;;;10.30;53.30;;;;;;5071113;28;20040;-68
2022/03/22 09:45:31;;;;;;;7.20;3.35;;;10.40;53.30;;;;;;5073219;28;20047;-68
2022/03/22 09:47:59;;;;;;;9.40;3.43;;;10.50;53.60;;;;;;5074085;28;20044;-69
2022/03/22 09:53:09;;;;;;;5.80;3.33;;;10.60;52.90;;;;;;5073543;28;20044;-67
2022/03/22 09:55:36;;;;;;;7.07;3.45;;;10.70;52.60;;;;;;5072248;28;20048;-67
2022/03/22 09:58:05;;;;;;;5.30;3.08;;;10.80;51.50;;;;;;5070046;28;20044;-67
2022/03/22 10:00:32;;;;;;;7.45;3.25;;;10.80;51.50;;;;;;5066888;28;20055;-68
2022/03/22 10:02:59;;;;;;;7.03;3.35;;;10.90;51.70;;;;;;5071437;28;20065;-68
2022/03/22 10:05:28;;;;;;;8.43;3.15;;;11.00;50.50;;;;;;5070055;28;20041;-67
2022/03/22 10:07:59;;;;;;;6.23;2.90;;;11.10;51.10;;;;;;5068393;28;20041;-68
2022/03/22 10:10:28;;;;;;;8.20;3.25;;;11.20;51.80;;;;;;5069272;28;20132;-69
2022/03/22 10:13:00;;;;;;;6.55;3.45;;;11.20;51.30;;;;;;5057386;28;20590;-68
2022/03/22 10:15:34;;;;;;;6.30;3.58;;;11.30;50.30;;;;;;5072377;28;20131;-69
2022/03/22 10:18:06;;;;;;;6.50;2.92;;;11.40;50.10;;;;;;5071057;28;20122;-69
2022/03/22 10:20:35;;;;;;;8.73;2.97;;;11.50;49.50;;;;;;5069041;28;20040;-67
2022/03/22 10:23:05;;;;;;;5.40;3.10;;;11.60;49.40;;;;;;5070758;28;20047;-68
2022/03/22 10:25:33;;;;;;;6.43;3.30;;;11.60;49.50;;;;;;5073205;28;20048;-68
2022/03/22 10:28:02;;;;;;;6.25;3.22;;;11.70;49.50;;;;;;5071042;28;20535;-68
2022/03/22 10:30:32;;;;;;;6.28;3.13;;;11.70;48.80;;;;;;5066094;28;20160;-68
2022/03/22 10:33:00;;;;;;;5.47;3.20;;;11.80;48.00;;;;;;5077933;28;20045;-68
2022/03/22 10:35:29;;;;;;;7.07;3.63;;;11.80;47.90;;;;;;5078289;28;20502;-68
2022/03/22 10:37:59;;;;;;;8.02;3.35;;;11.90;48.00;;;;;;5059761;28;20135;-68
2022/03/22 10:40:28;;;;;;;6.75;3.20;;;12.00;48.10;;;;;;5058629;28;20425;-68
2022/03/22 10:42:58;;;;;;;6.85;3.40;;;12.00;48.40;;;;;;5073352;28;20461;-68
2022/03/22 10:45:27;;;;;;;7.28;3.90;;;12.00;48.20;;;;;;5076312;28;20041;-67
2022/03/22 10:47:56;;;;;;;6.15;3.38;;;12.10;43.20;;;;;;5071781;28;20099;-68
2022/03/22 10:50:24;;;;;;;8.60;3.42;;;12.30;43.80;;;;;;5072898;28;20043;-69
2022/03/22 10:52:53;;;;;;;7.13;3.80;;;12.30;43.70;;;;;;5071251;28;20136;-67
2022/03/22 10:55:21;;;;;;;6.20;2.75;;;12.40;44.90;;;;;;5072236;28;20040;-68
2022/03/22 10:57:54;;;;;;;6.95;3.20;;;12.30;44.70;;;;;;5076189;28;20047;-67
2022/03/22 11:00:22;;;;;;;6.63;3.22;;;12.40;44.00;;;;;;5069156;28;20055;-69
2022/03/22 11:02:51;;;;;;;6.50;3.10;;;12.40;43.80;;;;;;5070423;28;20052;-68
2022/03/22 11:05:21;;;;;;;7.95;2.97;;;12.40;43.30;;;;;;5070457;28;20075;-68
2022/03/22 11:07:51;;;;;;;6.18;3.50;;;12.40;43.80;;;;;;5071553;28;20068;-67
2022/03/22 11:10:19;;;;;;;6.55;3.25;;;12.50;44.30;;;;;;5074311;28;20049;-70
2022/03/22 11:12:47;;;;;;;6.97;3.20;;;12.50;44.50;;;;;;5076527;28;20074;-69
2022/03/22 11:15:15;;;;;;;6.35;3.20;;;12.50;44.40;;;;;;5077982;28;20131;-69
2022/03/22 11:17:44;;;;;;;8.77;3.70;;;12.60;43.50;;;;;;5072391;28;20053;-67
2022/03/22 11:20:14;;;;;;;7.53;3.63;;;12.60;44.00;;;;;;5074366;28;20052;-68
2022/03/22 11:22:52;;;;;;;;;;;12.60;44.20;;;;;;5076198;28;20056;-68
2022/03/22 11:25:28;;;;;;;8.70;3.30;;;12.70;43.60;;;;;;5070124;28;19925;-68
2022/03/22 11:28:07;;;;;;;5.45;3.45;;;12.70;43.80;;;;;;5076813;28;20037;-68
2022/03/22 11:30:36;;;;;;;7.85;3.75;;;12.70;43.80;;;;;;5073963;28;20045;-68
2022/03/22 11:35:52;;;;;;;8.05;4.15;;;12.80;43.70;;;;;;5073572;28;20095;-69
2022/03/22 11:38:40;;;;;;;6.95;3.47;;;12.90;42.50;;;;;;5073369;28;20089;-68
2022/03/22 11:44:10;;;;;;;8.65;3.58;;;12.90;43.50;;;;;;5074050;28;20045;-69
2022/03/22 11:46:38;;;;;;;7.70;3.63;;;13.00;43.10;;;;;;5079585;28;20045;-67
2022/03/22 11:49:16;;;;;;;7.95;3.38;;;12.90;43.60;;;;;;5082753;28;20119;-69
2022/03/22 11:51:52;;;;;;;8.95;3.42;;;13.00;43.40;;;;;;5083435;28;20078;-68
2022/03/22 11:54:21;;;;;;;7.38;3.25;;;13.00;43.40;;;;;;5083284;28;20563;-68
2022/03/22 11:56:50;;;;;;;8.33;3.90;;;13.00;43.70;;;;;;5082227;28;20056;-70
2022/03/22 11:59:19;;;;;;;8.90;4.15;;;13.00;43.90;;;;;;5086530;28;20067;-67
2022/03/22 12:02:05;;;;;;;6.45;3.28;;;13.00;43.40;;;;;;5075763;28;20072;-69
2022/03/22 12:04:40;;;;;;;9.10;4.07;;;13.00;43.90;;;;;;5058584;28;20141;-69
2022/03/22 12:07:09;;;;;;;12.13;5.45;;;13.10;44.30;;;;;;5060851;28;20048;-66
2022/03/22 12:09:39;;;;;;;9.27;4.82;;;13.10;44.30;;;;;;5085755;28;20127;-68
2022/03/22 12:12:07;;;;;;;9.40;5.28;;;13.10;44.50;;;;;;5086818;28;20040;-68
2022/03/22 12:14:35;;;;;;;11.75;4.80;;;13.10;44.40;;;;;;5079409;28;20130;-69
2022/03/22 12:17:03;;;;;;;10.60;5.57;;;13.10;44.20;;;;;;5085570;28;20044;-68
2022/03/22 12:19:32;;;;;;;11.32;5.97;;;13.10;44.20;;;;;;5078665;28;20079;-69
2022/03/22 12:22:00;;;;;;;12.93;5.10;;;13.10;44.40;;;;;;5081017;28;20093;-69
2022/03/22 12:24:33;;;;;;;14.55;5.57;;;13.10;44.20;;;;;;5068486;28;20043;-68
2022/03/22 12:27:03;;;;;;;15.45;6.03;;;13.10;44.00;;;;;;5059674;28;20132;-68
2022/03/22 12:29:30;;;;;;;12.57;5.45;;;13.10;44.50;;;;;;5076924;28;20155;-69
2022/03/22 12:32:06;;;;;;;12.52;5.97;;;13.10;44.40;;;;;;5083694;28;20131;-69
2022/03/22 12:34:39;;;;;;;11.55;4.85;;;13.10;44.10;;;;;;5078755;28;20044;-68
2022/03/22 12:37:08;;;;;;;12.15;5.25;;;13.10;44.30;;;;;;5078840;28;20064;-69
2022/03/22 12:39:36;;;;;;;11.57;5.15;;;13.20;43.90;;;;;;5074945;28;20068;-70
2022/03/22 12:42:07;;;;;;;11.90;5.10;;;13.10;44.10;;;;;;5076012;28;20436;-69
2022/03/22 12:44:34;;;;;;;13.32;5.63;;;13.10;44.20;;;;;;5070457;28;20040;-68
2022/03/22 12:47:02;;;;;;;12.02;4.68;;;13.10;44.30;;;;;;5074419;28;20056;-69
2022/03/22 12:49:30;;;;;;;10.65;5.18;;;13.10;44.40;;;;;;5071494;28;20556;-69
2022/03/22 12:51:57;;;;;;;10.70;5.38;;;13.10;44.30;;;;;;5068955;28;20510;-68
2022/03/22 12:54:31;;;;;;;10.35;4.70;;;13.20;44.20;;;;;;5066445;28;20044;-69
2022/03/22 12:57:00;;;;;;;11.60;4.70;;;13.10;44.30;;;;;;5063939;28;20041;-68
2022/03/22 12:59:30;;;;;;;10.77;5.32;;;13.10;44.30;;;;;;5069149;28;20045;-70
2022/03/22 13:01:58;;;;;;;11.68;5.75;;;13.10;44.60;;;;;;5064550;28;20033;-68
2022/03/22 13:04:29;;;;;;;13.05;5.25;;;13.10;44.70;;;;;;5049123;28;21250;-69
2022/03/22 13:06:59;;;;;;;11.68;5.05;;;13.10;44.80;;;;;;5069446;28;20130;-68
2022/03/22 13:12:12;;;;;;;10.80;4.05;;;13.10;44.40;;;;;;5069016;28;20064;-70
2022/03/22 13:17:28;;;;;;;8.52;4.65;;;13.10;44.60;;;;;;5070570;28;20071;-70
2022/03/22 13:19:55;;;;;;;12.25;5.22;;;13.00;44.50;;;;;;5072781;28;20520;-69
2022/03/22 13:22:25;;;;;;;10.63;4.40;;;13.00;44.80;;;;;;5069257;28;20074;-69
2022/03/22 13:25:06;;;;;;;10.15;4.75;;;13.00;45.00;;;;;;5070537;28;20502;-70
2022/03/22 13:27:33;;;;;;;8.65;4.05;;;13.00;45.20;;;;;;5069427;28;20045;-69
2022/03/22 13:30:03;;;;;;;11.13;4.35;;;13.00;45.30;;;;;;5066037;28;20051;-68
2022/03/22 13:32:33;;;;;;;10.10;4.45;;;13.00;45.50;;;;;;5073209;28;20056;-68
2022/03/22 13:35:02;;;;;;;;;;;13.00;45.50;;;;;;5075125;28;20116;-69
2022/03/22 13:37:30;;;;;;;6.82;3.28;;;13.10;45.50;;;;;;5066599;28;19951;-68
2022/03/22 13:40:06;;;;;;;7.57;3.67;;;13.00;45.20;;;;;;5066016;28;20122;-69